sensor_id;sensor_type;location;lat;lon;timestamp;P1;durP1;ratioP1;P2;durP2;ratioP2
13975;SDS011;7062;49.792;9.946;2023-06-22T00:02:13;11.30;;;9.57;;
13975;SDS011;7062;49.792;9.946;2023-06-22T00:04:39;9.87;;;9.00;;
13975;SDS011;7062;49.792;9.946;2023-06-22T00:07:05;10.07;;;9.17;;
13975;SDS011;7062;49.792;9.946;2023-06-22T00:09:30;10.23;;;9.23;;
13975;SDS011;7062;49.792;9.946;2023-06-22T00:11:57;10.60;;;9.50;;
13975;SDS011;7062;49.792;9.946;2023-06-22T00:14:22;9.70;;;8.77;;
13975;SDS011;7062;49.792;9.946;2023-06-22T00:16:48;11.30;;;10.20;;
13975;SDS011;7062;49.792;9.946;2023-06-22T00:19:14;10.43;;;9.53;;
13975;SDS011;7062;49.792;9.946;2023-06-22T00:21:40;10.87;;;9.97;;
13975;SDS011;7062;49.792;9.946;2023-06-22T00:24:07;10.30;;;9.27;;
13975;SDS011;7062;49.792;9.946;2023-06-22T00:26:33;10.93;;;9.80;;
13975;SDS011;7062;49.792;9.946;2023-06-22T00:28:59;11.87;;;10.63;;
13975;SDS011;7062;49.792;9.946;2023-06-22T00:31:24;12.47;;;11.23;;
13975;SDS011;7062;49.792;9.946;2023-06-22T00:33:50;12.73;;;10.83;;
13975;SDS011;7062;49.792;9.946;2023-06-22T00:36:16;10.53;;;9.50;;
13975;SDS011;7062;49.792;9.946;2023-06-22T00:38:42;10.27;;;9.27;;
13975;SDS011;7062;49.792;9.946;2023-06-22T00:41:08;11.60;;;10.30;;
13975;SDS011;7062;49.792;9.946;2023-06-22T00:43:34;12.90;;;10.77;;
13975;SDS011;7062;49.792;9.946;2023-06-22T00:46:00;12.43;;;11.17;;
13975;SDS011;7062;49.792;9.946;2023-06-22T00:48:26;11.43;;;10.37;;
13975;SDS011;7062;49.792;9.946;2023-06-22T00:50:52;12.50;;;11.23;;
13975;SDS011;7062;49.792;9.946;2023-06-22T00:53:18;13.23;;;11.80;;
13975;SDS011;7062;49.792;9.946;2023-06-22T00:55:44;13.30;;;11.87;;
13975;SDS011;7062;49.792;9.946;2023-06-22T00:58:12;11.17;;;10.07;;
13975;SDS011;7062;49.792;9.946;2023-06-22T01:00:41;12.53;;;10.70;;
13975;SDS011;7062;49.792;9.946;2023-06-22T01:03:07;13.47;;;12.03;;
13975;SDS011;7062;49.792;9.946;2023-06-22T01:05:34;12.63;;;10.97;;
13975;SDS011;7062;49.792;9.946;2023-06-22T01:13:25;14.13;;;12.30;;
13975;SDS011;7062;49.792;9.946;2023-06-22T01:18:40;15.80;;;12.33;;
13975;SDS011;7062;49.792;9.946;2023-06-22T01:21:07;14.17;;;12.73;;
13975;SDS011;7062;49.792;9.946;2023-06-22T01:26:41;14.17;;;12.77;;
13975;SDS011;7062;49.792;9.946;2023-06-22T01:29:08;14.00;;;12.70;;
13975;SDS011;7062;49.792;9.946;2023-06-22T01:31:38;15.53;;;12.50;;
13975;SDS011;7062;49.792;9.946;2023-06-22T01:34:06;13.97;;;12.37;;
13975;SDS011;7062;49.792;9.946;2023-06-22T01:36:33;14.40;;;13.10;;
13975;SDS011;7062;49.792;9.946;2023-06-22T01:39:00;14.13;;;12.80;;
13975;SDS011;7062;49.792;9.946;2023-06-22T01:41:28;16.03;;;14.43;;
13975;SDS011;7062;49.792;9.946;2023-06-22T01:43:55;14.90;;;13.27;;
13975;SDS011;7062;49.792;9.946;2023-06-22T01:46:21;14.57;;;13.07;;
13975;SDS011;7062;49.792;9.946;2023-06-22T01:48:48;14.93;;;13.57;;
13975;SDS011;7062;49.792;9.946;2023-06-22T01:51:15;16.03;;;13.10;;
13975;SDS011;7062;49.792;9.946;2023-06-22T01:53:41;14.53;;;13.07;;
13975;SDS011;7062;49.792;9.946;2023-06-22T01:56:07;15.20;;;13.70;;
13975;SDS011;7062;49.792;9.946;2023-06-22T01:58:33;13.50;;;12.40;;
13975;SDS011;7062;49.792;9.946;2023-06-22T02:01:11;12.23;;;11.13;;
13975;SDS011;7062;49.792;9.946;2023-06-22T02:03:41;11.13;;;10.03;;
13975;SDS011;7062;49.792;9.946;2023-06-22T02:06:31;12.37;;;11.23;;
13975;SDS011;7062;49.792;9.946;2023-06-22T02:09:02;14.23;;;12.57;;
13975;SDS011;7062;49.792;9.946;2023-06-22T02:11:32;13.03;;;11.93;;
13975;SDS011;7062;49.792;9.946;2023-06-22T02:13:59;12.70;;;10.83;;
13975;SDS011;7062;49.792;9.946;2023-06-22T02:16:25;12.13;;;11.03;;
13975;SDS011;7062;49.792;9.946;2023-06-22T02:18:54;16.00;;;11.77;;
13975;SDS011;7062;49.792;9.946;2023-06-22T02:21:21;13.10;;;11.77;;
13975;SDS011;7062;49.792;9.946;2023-06-22T02:23:48;11.90;;;10.70;;
13975;SDS011;7062;49.792;9.946;2023-06-22T02:26:15;12.17;;;10.97;;
13975;SDS011;7062;49.792;9.946;2023-06-22T02:28:42;11.43;;;10.03;;
13975;SDS011;7062;49.792;9.946;2023-06-22T02:31:08;10.77;;;9.57;;
13975;SDS011;7062;49.792;9.946;2023-06-22T02:33:33;12.43;;;11.23;;
13975;SDS011;7062;49.792;9.946;2023-06-22T02:35:59;11.53;;;10.40;;
13975;SDS011;7062;49.792;9.946;2023-06-22T02:38:25;13.20;;;12.00;;
13975;SDS011;7062;49.792;9.946;2023-06-22T02:40:51;12.77;;;11.67;;
13975;SDS011;7062;49.792;9.946;2023-06-22T02:43:17;15.17;;;11.03;;
13975;SDS011;7062;49.792;9.946;2023-06-22T02:45:42;12.77;;;11.47;;
13975;SDS011;7062;49.792;9.946;2023-06-22T02:48:08;11.63;;;10.53;;
13975;SDS011;7062;49.792;9.946;2023-06-22T02:50:34;13.63;;;11.63;;
13975;SDS011;7062;49.792;9.946;2023-06-22T02:53:00;14.17;;;12.67;;
13975;SDS011;7062;49.792;9.946;2023-06-22T02:55:26;12.93;;;11.63;;
13975;SDS011;7062;49.792;9.946;2023-06-22T02:57:51;13.67;;;12.40;;
13975;SDS011;7062;49.792;9.946;2023-06-22T03:00:17;13.20;;;11.37;;
13975;SDS011;7062;49.792;9.946;2023-06-22T03:02:44;13.60;;;12.37;;
13975;SDS011;7062;49.792;9.946;2023-06-22T03:05:11;16.97;;;12.63;;
13975;SDS011;7062;49.792;9.946;2023-06-22T03:07:41;14.20;;;12.97;;
13975;SDS011;7062;49.792;9.946;2023-06-22T03:10:11;13.40;;;12.10;;
13975;SDS011;7062;49.792;9.946;2023-06-22T03:12:38;13.50;;;12.10;;
13975;SDS011;7062;49.792;9.946;2023-06-22T03:15:05;14.53;;;13.03;;
13975;SDS011;7062;49.792;9.946;2023-06-22T03:17:31;14.90;;;13.60;;
13975;SDS011;7062;49.792;9.946;2023-06-22T03:19:58;16.30;;;14.77;;
13975;SDS011;7062;49.792;9.946;2023-06-22T03:22:23;15.20;;;13.67;;
13975;SDS011;7062;49.792;9.946;2023-06-22T03:24:49;14.37;;;13.07;;
13975;SDS011;7062;49.792;9.946;2023-06-22T03:27:14;14.53;;;13.13;;
13975;SDS011;7062;49.792;9.946;2023-06-22T03:29:40;13.50;;;12.40;;
13975;SDS011;7062;49.792;9.946;2023-06-22T03:32:06;15.47;;;13.97;;
13975;SDS011;7062;49.792;9.946;2023-06-22T03:34:32;15.00;;;13.60;;
13975;SDS011;7062;49.792;9.946;2023-06-22T03:37:03;15.53;;;14.03;;
13975;SDS011;7062;49.792;9.946;2023-06-22T03:39:29;14.87;;;13.53;;
13975;SDS011;7062;49.792;9.946;2023-06-22T03:41:55;15.23;;;13.77;;
13975;SDS011;7062;49.792;9.946;2023-06-22T03:44:20;13.83;;;12.63;;
13975;SDS011;7062;49.792;9.946;2023-06-22T03:46:46;14.60;;;13.37;;
13975;SDS011;7062;49.792;9.946;2023-06-22T03:49:12;13.60;;;12.30;;
13975;SDS011;7062;49.792;9.946;2023-06-22T03:51:37;17.40;;;14.10;;
13975;SDS011;7062;49.792;9.946;2023-06-22T03:54:03;14.93;;;13.53;;
13975;SDS011;7062;49.792;9.946;2023-06-22T03:56:29;13.70;;;12.60;;
13975;SDS011;7062;49.792;9.946;2023-06-22T03:58:55;15.20;;;13.77;;
13975;SDS011;7062;49.792;9.946;2023-06-22T04:01:21;15.73;;;14.00;;
13975;SDS011;7062;49.792;9.946;2023-06-22T04:03:46;15.00;;;13.43;;
13975;SDS011;7062;49.792;9.946;2023-06-22T04:06:14;15.43;;;13.83;;
13975;SDS011;7062;49.792;9.946;2023-06-22T04:08:40;17.47;;;15.67;;
13975;SDS011;7062;49.792;9.946;2023-06-22T04:11:06;15.13;;;13.73;;
13975;SDS011;7062;49.792;9.946;2023-06-22T04:13:31;16.53;;;14.83;;
13975;SDS011;7062;49.792;9.946;2023-06-22T04:15:57;16.00;;;14.53;;
13975;SDS011;7062;49.792;9.946;2023-06-22T04:18:23;15.47;;;13.90;;
13975;SDS011;7062;49.792;9.946;2023-06-22T04:20:48;16.10;;;14.50;;
13975;SDS011;7062;49.792;9.946;2023-06-22T04:23:14;16.10;;;14.60;;
13975;SDS011;7062;49.792;9.946;2023-06-22T04:25:40;15.37;;;13.77;;
13975;SDS011;7062;49.792;9.946;2023-06-22T04:28:05;14.97;;;13.47;;
13975;SDS011;7062;49.792;9.946;2023-06-22T04:30:37;17.30;;;14.80;;
13975;SDS011;7062;49.792;9.946;2023-06-22T04:33:11;16.20;;;14.40;;
13975;SDS011;7062;49.792;9.946;2023-06-22T04:35:38;16.60;;;15.00;;
13975;SDS011;7062;49.792;9.946;2023-06-22T04:38:06;15.07;;;13.60;;
13975;SDS011;7062;49.792;9.946;2023-06-22T04:40:32;16.63;;;15.23;;
13975;SDS011;7062;49.792;9.946;2023-06-22T04:42:58;16.33;;;14.80;;
13975;SDS011;7062;49.792;9.946;2023-06-22T04:45:27;16.27;;;14.87;;
13975;SDS011;7062;49.792;9.946;2023-06-22T04:47:54;16.47;;;14.83;;
13975;SDS011;7062;49.792;9.946;2023-06-22T04:50:20;16.20;;;14.70;;
13975;SDS011;7062;49.792;9.946;2023-06-22T04:52:47;14.73;;;13.63;;
13975;SDS011;7062;49.792;9.946;2023-06-22T04:55:13;15.97;;;14.57;;
13975;SDS011;7062;49.792;9.946;2023-06-22T04:57:43;16.60;;;15.23;;
13975;SDS011;7062;49.792;9.946;2023-06-22T05:00:16;15.97;;;14.47;;
13975;SDS011;7062;49.792;9.946;2023-06-22T05:02:48;16.30;;;14.67;;
13975;SDS011;7062;49.792;9.946;2023-06-22T05:05:14;15.63;;;14.23;;
13975;SDS011;7062;49.792;9.946;2023-06-22T05:07:44;15.53;;;14.03;;
13975;SDS011;7062;49.792;9.946;2023-06-22T05:10:13;15.57;;;14.20;;
13975;SDS011;7062;49.792;9.946;2023-06-22T05:12:39;13.97;;;12.60;;
13975;SDS011;7062;49.792;9.946;2023-06-22T05:15:06;15.60;;;14.07;;
13975;SDS011;7062;49.792;9.946;2023-06-22T05:17:33;13.30;;;12.03;;
13975;SDS011;7062;49.792;9.946;2023-06-22T05:19:59;16.07;;;14.50;;
13975;SDS011;7062;49.792;9.946;2023-06-22T05:22:24;15.53;;;14.03;;
13975;SDS011;7062;49.792;9.946;2023-06-22T05:24:50;15.73;;;14.27;;
13975;SDS011;7062;49.792;9.946;2023-06-22T05:27:15;15.93;;;14.40;;
13975;SDS011;7062;49.792;9.946;2023-06-22T05:29:41;15.53;;;14.13;;
13975;SDS011;7062;49.792;9.946;2023-06-22T05:32:09;17.93;;;16.20;;
13975;SDS011;7062;49.792;9.946;2023-06-22T05:34:35;15.97;;;14.47;;
13975;SDS011;7062;49.792;9.946;2023-06-22T05:37:01;17.07;;;15.57;;
13975;SDS011;7062;49.792;9.946;2023-06-22T05:39:28;16.57;;;14.97;;
13975;SDS011;7062;49.792;9.946;2023-06-22T05:41:53;15.73;;;14.27;;
13975;SDS011;7062;49.792;9.946;2023-06-22T05:44:19;15.40;;;13.87;;
13975;SDS011;7062;49.792;9.946;2023-06-22T05:46:45;15.43;;;13.90;;
13975;SDS011;7062;49.792;9.946;2023-06-22T05:49:14;15.97;;;14.30;;
13975;SDS011;7062;49.792;9.946;2023-06-22T05:51:41;14.13;;;12.73;;
13975;SDS011;7062;49.792;9.946;2023-06-22T05:54:07;14.90;;;13.60;;
13975;SDS011;7062;49.792;9.946;2023-06-22T05:56:33;18.70;;;13.87;;
13975;SDS011;7062;49.792;9.946;2023-06-22T05:58:59;15.30;;;13.90;;
13975;SDS011;7062;49.792;9.946;2023-06-22T06:01:25;15.13;;;13.63;;
13975;SDS011;7062;49.792;9.946;2023-06-22T06:03:53;14.50;;;13.20;;
13975;SDS011;7062;49.792;9.946;2023-06-22T06:06:19;12.87;;;11.70;;
13975;SDS011;7062;49.792;9.946;2023-06-22T06:08:53;15.83;;;14.13;;
13975;SDS011;7062;49.792;9.946;2023-06-22T06:11:19;15.23;;;13.27;;
13975;SDS011;7062;49.792;9.946;2023-06-22T06:13:44;14.10;;;12.80;;
13975;SDS011;7062;49.792;9.946;2023-06-22T06:16:10;14.03;;;12.73;;
13975;SDS011;7062;49.792;9.946;2023-06-22T06:18:36;16.03;;;13.83;;
13975;SDS011;7062;49.792;9.946;2023-06-22T06:21:02;15.47;;;14.07;;
13975;SDS011;7062;49.792;9.946;2023-06-22T06:23:28;14.07;;;12.77;;
13975;SDS011;7062;49.792;9.946;2023-06-22T06:25:54;14.53;;;12.90;;
13975;SDS011;7062;49.792;9.946;2023-06-22T06:28:19;14.43;;;13.13;;
13975;SDS011;7062;49.792;9.946;2023-06-22T06:30:45;15.23;;;13.93;;
13975;SDS011;7062;49.792;9.946;2023-06-22T06:33:12;15.60;;;14.10;;
13975;SDS011;7062;49.792;9.946;2023-06-22T06:35:38;14.50;;;13.20;;
13975;SDS011;7062;49.792;9.946;2023-06-22T06:38:04;13.27;;;12.07;;
13975;SDS011;7062;49.792;9.946;2023-06-22T06:40:29;14.47;;;13.23;;
13975;SDS011;7062;49.792;9.946;2023-06-22T06:42:55;14.60;;;12.87;;
13975;SDS011;7062;49.792;9.946;2023-06-22T06:45:21;13.73;;;12.33;;
13975;SDS011;7062;49.792;9.946;2023-06-22T06:47:48;13.60;;;12.33;;
13975;SDS011;7062;49.792;9.946;2023-06-22T06:50:15;15.80;;;13.00;;
13975;SDS011;7062;49.792;9.946;2023-06-22T06:52:41;15.83;;;13.33;;
13975;SDS011;7062;49.792;9.946;2023-06-22T06:55:07;14.67;;;13.17;;
13975;SDS011;7062;49.792;9.946;2023-06-22T06:57:36;13.47;;;12.37;;
13975;SDS011;7062;49.792;9.946;2023-06-22T07:00:03;13.77;;;12.43;;
13975;SDS011;7062;49.792;9.946;2023-06-22T07:02:37;13.07;;;11.87;;
13975;SDS011;7062;49.792;9.946;2023-06-22T07:05:05;12.50;;;11.50;;
13975;SDS011;7062;49.792;9.946;2023-06-22T07:07:31;14.07;;;12.77;;
13975;SDS011;7062;49.792;9.946;2023-06-22T07:09:56;14.37;;;13.07;;
13975;SDS011;7062;49.792;9.946;2023-06-22T07:12:22;13.57;;;12.27;;
13975;SDS011;7062;49.792;9.946;2023-06-22T07:14:48;16.10;;;13.00;;
13975;SDS011;7062;49.792;9.946;2023-06-22T07:17:13;14.23;;;12.53;;
13975;SDS011;7062;49.792;9.946;2023-06-22T07:19:39;14.47;;;12.97;;
13975;SDS011;7062;49.792;9.946;2023-06-22T07:22:05;13.27;;;12.03;;
13975;SDS011;7062;49.792;9.946;2023-06-22T07:24:30;13.23;;;11.83;;
13975;SDS011;7062;49.792;9.946;2023-06-22T07:26:57;13.13;;;12.03;;
13975;SDS011;7062;49.792;9.946;2023-06-22T07:29:24;13.53;;;12.33;;
13975;SDS011;7062;49.792;9.946;2023-06-22T07:31:50;13.13;;;11.83;;
13975;SDS011;7062;49.792;9.946;2023-06-22T07:34:19;12.63;;;11.53;;
13975;SDS011;7062;49.792;9.946;2023-06-22T07:36:44;12.03;;;11.03;;
13975;SDS011;7062;49.792;9.946;2023-06-22T07:39:11;13.30;;;11.93;;
13975;SDS011;7062;49.792;9.946;2023-06-22T07:41:38;14.83;;;13.33;;
13975;SDS011;7062;49.792;9.946;2023-06-22T07:44:04;13.13;;;11.77;;
13975;SDS011;7062;49.792;9.946;2023-06-22T07:46:31;12.93;;;11.63;;
13975;SDS011;7062;49.792;9.946;2023-06-22T07:48:57;12.60;;;11.50;;
13975;SDS011;7062;49.792;9.946;2023-06-22T07:51:23;12.40;;;11.40;;
13975;SDS011;7062;49.792;9.946;2023-06-22T07:53:49;12.67;;;11.60;;
13975;SDS011;7062;49.792;9.946;2023-06-22T07:56:14;12.07;;;10.97;;
13975;SDS011;7062;49.792;9.946;2023-06-22T07:58:44;16.00;;;12.23;;
13975;SDS011;7062;49.792;9.946;2023-06-22T08:01:11;12.17;;;11.07;;
13975;SDS011;7062;49.792;9.946;2023-06-22T08:03:36;13.43;;;12.13;;
13975;SDS011;7062;49.792;9.946;2023-06-22T08:06:02;11.77;;;10.73;;
13975;SDS011;7062;49.792;9.946;2023-06-22T08:08:28;12.07;;;10.97;;
13975;SDS011;7062;49.792;9.946;2023-06-22T08:10:54;12.23;;;11.13;;
13975;SDS011;7062;49.792;9.946;2023-06-22T08:13:19;11.27;;;9.60;;
13975;SDS011;7062;49.792;9.946;2023-06-22T08:15:45;13.50;;;12.20;;
13975;SDS011;7062;49.792;9.946;2023-06-22T08:18:10;11.60;;;10.60;;
13975;SDS011;7062;49.792;9.946;2023-06-22T08:20:36;13.27;;;11.87;;
13975;SDS011;7062;49.792;9.946;2023-06-22T08:23:02;11.87;;;10.87;;
13975;SDS011;7062;49.792;9.946;2023-06-22T08:25:31;10.90;;;9.87;;
13975;SDS011;7062;49.792;9.946;2023-06-22T08:27:58;11.87;;;10.80;;
13975;SDS011;7062;49.792;9.946;2023-06-22T08:30:23;9.63;;;8.83;;
13975;SDS011;7062;49.792;9.946;2023-06-22T08:32:49;12.37;;;11.27;;
13975;SDS011;7062;49.792;9.946;2023-06-22T08:35:15;12.20;;;10.37;;
13975;SDS011;7062;49.792;9.946;2023-06-22T08:37:40;10.60;;;9.70;;
13975;SDS011;7062;49.792;9.946;2023-06-22T08:40:09;12.87;;;11.67;;
13975;SDS011;7062;49.792;9.946;2023-06-22T08:42:35;11.47;;;10.47;;
13975;SDS011;7062;49.792;9.946;2023-06-22T08:45:02;10.37;;;9.47;;
13975;SDS011;7062;49.792;9.946;2023-06-22T08:47:28;9.60;;;8.90;;
13975;SDS011;7062;49.792;9.946;2023-06-22T08:49:54;8.57;;;7.77;;
13975;SDS011;7062;49.792;9.946;2023-06-22T08:52:20;9.03;;;8.30;;
13975;SDS011;7062;49.792;9.946;2023-06-22T08:54:46;9.63;;;7.40;;
13975;SDS011;7062;49.792;9.946;2023-06-22T08:57:12;8.87;;;8.07;;
13975;SDS011;7062;49.792;9.946;2023-06-22T08:59:38;8.90;;;8.10;;
13975;SDS011;7062;49.792;9.946;2023-06-22T09:02:04;9.13;;;8.27;;
13975;SDS011;7062;49.792;9.946;2023-06-22T09:04:30;9.63;;;8.83;;
13975;SDS011;7062;49.792;9.946;2023-06-22T09:06:59;8.80;;;8.00;;
13975;SDS011;7062;49.792;9.946;2023-06-22T09:09:28;9.23;;;8.33;;
13975;SDS011;7062;49.792;9.946;2023-06-22T09:11:54;9.43;;;8.00;;
13975;SDS011;7062;49.792;9.946;2023-06-22T09:14:19;9.17;;;7.43;;
13975;SDS011;7062;49.792;9.946;2023-06-22T09:16:45;7.33;;;6.67;;
13975;SDS011;7062;49.792;9.946;2023-06-22T09:19:11;7.70;;;7.00;;
13975;SDS011;7062;49.792;9.946;2023-06-22T09:21:36;7.67;;;6.93;;
13975;SDS011;7062;49.792;9.946;2023-06-22T09:24:02;8.07;;;7.30;;
13975;SDS011;7062;49.792;9.946;2023-06-22T09:26:28;8.03;;;6.40;;
13975;SDS011;7062;49.792;9.946;2023-06-22T09:28:54;8.43;;;7.53;;
13975;SDS011;7062;49.792;9.946;2023-06-22T09:31:19;7.70;;;7.00;;
13975;SDS011;7062;49.792;9.946;2023-06-22T09:33:53;7.83;;;7.07;;
13975;SDS011;7062;49.792;9.946;2023-06-22T09:36:20;7.87;;;7.17;;
13975;SDS011;7062;49.792;9.946;2023-06-22T09:38:46;6.97;;;6.37;;
13975;SDS011;7062;49.792;9.946;2023-06-22T09:41:12;7.13;;;6.43;;
13975;SDS011;7062;49.792;9.946;2023-06-22T09:43:38;7.33;;;5.77;;
13975;SDS011;7062;49.792;9.946;2023-06-22T09:46:03;6.63;;;6.03;;
13975;SDS011;7062;49.792;9.946;2023-06-22T09:48:29;8.23;;;5.57;;
13975;SDS011;7062;49.792;9.946;2023-06-22T09:50:55;6.33;;;5.67;;
13975;SDS011;7062;49.792;9.946;2023-06-22T09:53:21;8.00;;;7.30;;
13975;SDS011;7062;49.792;9.946;2023-06-22T09:55:47;7.83;;;7.13;;
13975;SDS011;7062;49.792;9.946;2023-06-22T09:58:12;6.83;;;6.13;;
13975;SDS011;7062;49.792;9.946;2023-06-22T10:00:38;6.20;;;5.57;;
13975;SDS011;7062;49.792;9.946;2023-06-22T10:03:04;6.73;;;6.07;;
13975;SDS011;7062;49.792;9.946;2023-06-22T10:05:29;7.07;;;6.47;;
13975;SDS011;7062;49.792;9.946;2023-06-22T10:07:55;7.60;;;6.77;;
13975;SDS011;7062;49.792;9.946;2023-06-22T10:10:20;9.07;;;5.63;;
13975;SDS011;7062;49.792;9.946;2023-06-22T10:12:47;7.83;;;5.67;;
13975;SDS011;7062;49.792;9.946;2023-06-22T10:15:21;5.80;;;5.23;;
13975;SDS011;7062;49.792;9.946;2023-06-22T10:17:47;7.07;;;5.23;;
13975;SDS011;7062;49.792;9.946;2023-06-22T10:20:13;5.70;;;4.53;;
13975;SDS011;7062;49.792;9.946;2023-06-22T10:22:43;7.07;;;5.23;;
13975;SDS011;7062;49.792;9.946;2023-06-22T10:25:10;6.90;;;5.90;;
13975;SDS011;7062;49.792;9.946;2023-06-22T10:27:36;6.20;;;5.03;;
13975;SDS011;7062;49.792;9.946;2023-06-22T10:30:05;5.93;;;5.33;;
13975;SDS011;7062;49.792;9.946;2023-06-22T10:32:32;5.90;;;4.80;;
13975;SDS011;7062;49.792;9.946;2023-06-22T10:34:58;5.60;;;5.10;;
13975;SDS011;7062;49.792;9.946;2023-06-22T10:37:23;5.27;;;4.73;;
13975;SDS011;7062;49.792;9.946;2023-06-22T10:39:49;5.20;;;4.70;;
13975;SDS011;7062;49.792;9.946;2023-06-22T10:42:14;8.70;;;5.50;;
13975;SDS011;7062;49.792;9.946;2023-06-22T10:44:40;11.73;;;5.90;;
13975;SDS011;7062;49.792;9.946;2023-06-22T10:47:08;5.67;;;5.17;;
13975;SDS011;7062;49.792;9.946;2023-06-22T10:49:33;6.90;;;5.33;;
13975;SDS011;7062;49.792;9.946;2023-06-22T10:51:59;7.37;;;6.13;;
13975;SDS011;7062;49.792;9.946;2023-06-22T10:54:25;7.33;;;6.03;;
13975;SDS011;7062;49.792;9.946;2023-06-22T10:56:50;6.07;;;5.47;;
13975;SDS011;7062;49.792;9.946;2023-06-22T10:59:16;6.57;;;5.43;;
13975;SDS011;7062;49.792;9.946;2023-06-22T11:01:41;6.70;;;5.47;;
13975;SDS011;7062;49.792;9.946;2023-06-22T11:04:07;6.57;;;5.53;;
13975;SDS011;7062;49.792;9.946;2023-06-22T11:06:33;6.23;;;5.10;;
13975;SDS011;7062;49.792;9.946;2023-06-22T11:08:58;10.67;;;5.40;;
13975;SDS011;7062;49.792;9.946;2023-06-22T11:11:25;5.67;;;4.87;;
13975;SDS011;7062;49.792;9.946;2023-06-22T11:13:51;9.07;;;4.87;;
13975;SDS011;7062;49.792;9.946;2023-06-22T11:16:17;5.30;;;4.47;;
13975;SDS011;7062;49.792;9.946;2023-06-22T11:18:43;5.90;;;4.93;;
13975;SDS011;7062;49.792;9.946;2023-06-22T11:21:08;9.73;;;5.40;;
13975;SDS011;7062;49.792;9.946;2023-06-22T11:23:34;7.83;;;5.57;;
13975;SDS011;7062;49.792;9.946;2023-06-22T11:25:59;5.87;;;4.37;;
13975;SDS011;7062;49.792;9.946;2023-06-22T11:28:25;6.33;;;5.67;;
13975;SDS011;7062;49.792;9.946;2023-06-22T11:30:52;5.70;;;5.17;;
13975;SDS011;7062;49.792;9.946;2023-06-22T11:33:18;6.67;;;4.90;;
13975;SDS011;7062;49.792;9.946;2023-06-22T11:35:44;5.60;;;4.43;;
13975;SDS011;7062;49.792;9.946;2023-06-22T11:38:09;5.80;;;4.93;;
13975;SDS011;7062;49.792;9.946;2023-06-22T11:40:35;7.83;;;5.23;;
13975;SDS011;7062;49.792;9.946;2023-06-22T11:43:01;8.67;;;5.20;;
13975;SDS011;7062;49.792;9.946;2023-06-22T11:45:26;9.63;;;5.97;;
13975;SDS011;7062;49.792;9.946;2023-06-22T11:47:52;7.47;;;5.07;;
13975;SDS011;7062;49.792;9.946;2023-06-22T11:50:18;7.97;;;5.40;;
13975;SDS011;7062;49.792;9.946;2023-06-22T11:52:44;7.83;;;4.87;;
13975;SDS011;7062;49.792;9.946;2023-06-22T11:55:09;7.17;;;6.03;;
13975;SDS011;7062;49.792;9.946;2023-06-22T11:57:35;6.57;;;5.47;;
13975;SDS011;7062;49.792;9.946;2023-06-22T12:00:05;6.30;;;5.10;;
13975;SDS011;7062;49.792;9.946;2023-06-22T12:02:31;7.93;;;6.20;;
13975;SDS011;7062;49.792;9.946;2023-06-22T12:04:57;6.13;;;5.53;;
13975;SDS011;7062;49.792;9.946;2023-06-22T12:07:23;8.97;;;6.17;;
13975;SDS011;7062;49.792;9.946;2023-06-22T12:09:49;7.60;;;5.70;;
13975;SDS011;7062;49.792;9.946;2023-06-22T12:12:14;8.60;;;5.07;;
13975;SDS011;7062;49.792;9.946;2023-06-22T12:14:40;8.40;;;5.93;;
13975;SDS011;7062;49.792;9.946;2023-06-22T12:17:06;7.50;;;5.70;;
13975;SDS011;7062;49.792;9.946;2023-06-22T12:19:31;9.07;;;5.80;;
13975;SDS011;7062;49.792;9.946;2023-06-22T12:21:57;11.83;;;5.93;;
13975;SDS011;7062;49.792;9.946;2023-06-22T12:24:23;7.97;;;5.23;;
13975;SDS011;7062;49.792;9.946;2023-06-22T12:26:48;7.07;;;5.47;;
13975;SDS011;7062;49.792;9.946;2023-06-22T12:29:14;9.87;;;5.27;;
13975;SDS011;7062;49.792;9.946;2023-06-22T12:31:40;9.97;;;5.73;;
13975;SDS011;7062;49.792;9.946;2023-06-22T12:34:06;9.00;;;5.53;;
13975;SDS011;7062;49.792;9.946;2023-06-22T12:36:32;11.43;;;6.27;;
13975;SDS011;7062;49.792;9.946;2023-06-22T12:38:58;9.77;;;5.43;;
13975;SDS011;7062;49.792;9.946;2023-06-22T12:41:23;12.97;;;5.53;;
13975;SDS011;7062;49.792;9.946;2023-06-22T12:43:49;7.17;;;5.80;;
13975;SDS011;7062;49.792;9.946;2023-06-22T12:46:14;7.33;;;5.67;;
13975;SDS011;7062;49.792;9.946;2023-06-22T12:48:40;7.40;;;5.83;;
13975;SDS011;7062;49.792;9.946;2023-06-22T12:51:08;7.53;;;5.30;;
13975;SDS011;7062;49.792;9.946;2023-06-22T12:53:34;7.23;;;5.47;;
13975;SDS011;7062;49.792;9.946;2023-06-22T12:56:00;6.77;;;4.63;;
13975;SDS011;7062;49.792;9.946;2023-06-22T12:58:26;9.03;;;5.13;;
13975;SDS011;7062;49.792;9.946;2023-06-22T13:00:51;8.00;;;5.63;;
13975;SDS011;7062;49.792;9.946;2023-06-22T13:03:17;8.23;;;5.70;;
13975;SDS011;7062;49.792;9.946;2023-06-22T13:05:42;7.03;;;4.50;;
13975;SDS011;7062;49.792;9.946;2023-06-22T13:08:08;9.77;;;5.57;;
13975;SDS011;7062;49.792;9.946;2023-06-22T13:10:33;7.30;;;5.17;;
13975;SDS011;7062;49.792;9.946;2023-06-22T13:12:59;8.20;;;5.67;;
13975;SDS011;7062;49.792;9.946;2023-06-22T13:15:28;7.97;;;5.53;;
13975;SDS011;7062;49.792;9.946;2023-06-22T13:17:55;5.30;;;4.70;;
13975;SDS011;7062;49.792;9.946;2023-06-22T13:20:20;7.50;;;5.30;;
13975;SDS011;7062;49.792;9.946;2023-06-22T13:22:46;7.57;;;5.67;;
13975;SDS011;7062;49.792;9.946;2023-06-22T13:25:12;7.70;;;5.70;;
13975;SDS011;7062;49.792;9.946;2023-06-22T13:27:38;8.57;;;5.90;;
13975;SDS011;7062;49.792;9.946;2023-06-22T13:30:05;8.63;;;5.63;;
13975;SDS011;7062;49.792;9.946;2023-06-22T13:32:31;7.87;;;6.30;;
13975;SDS011;7062;49.792;9.946;2023-06-22T13:34:57;10.07;;;6.27;;
13975;SDS011;7062;49.792;9.946;2023-06-22T13:37:22;9.13;;;5.77;;
13975;SDS011;7062;49.792;9.946;2023-06-22T13:39:48;6.17;;;5.03;;
13975;SDS011;7062;49.792;9.946;2023-06-22T13:42:14;6.90;;;5.80;;
13975;SDS011;7062;49.792;9.946;2023-06-22T13:44:39;9.07;;;5.63;;
13975;SDS011;7062;49.792;9.946;2023-06-22T13:47:05;8.33;;;5.93;;
13975;SDS011;7062;49.792;9.946;2023-06-22T13:49:31;9.93;;;5.77;;
13975;SDS011;7062;49.792;9.946;2023-06-22T13:51:57;8.00;;;5.80;;
13975;SDS011;7062;49.792;9.946;2023-06-22T13:54:22;6.30;;;5.10;;
13975;SDS011;7062;49.792;9.946;2023-06-22T13:56:48;7.83;;;5.40;;
13975;SDS011;7062;49.792;9.946;2023-06-22T13:59:14;6.97;;;4.87;;
13975;SDS011;7062;49.792;9.946;2023-06-22T14:01:39;9.23;;;5.47;;
13975;SDS011;7062;49.792;9.946;2023-06-22T14:04:06;11.37;;;6.00;;
13975;SDS011;7062;49.792;9.946;2023-06-22T14:06:31;10.13;;;5.80;;
13975;SDS011;7062;49.792;9.946;2023-06-22T14:08:57;7.03;;;5.50;;
13975;SDS011;7062;49.792;9.946;2023-06-22T14:11:22;8.10;;;5.80;;
13975;SDS011;7062;49.792;9.946;2023-06-22T14:13:49;10.43;;;5.67;;
13975;SDS011;7062;49.792;9.946;2023-06-22T14:16:15;6.53;;;5.13;;
13975;SDS011;7062;49.792;9.946;2023-06-22T14:18:40;7.33;;;5.67;;
13975;SDS011;7062;49.792;9.946;2023-06-22T14:21:07;9.73;;;5.63;;
13975;SDS011;7062;49.792;9.946;2023-06-22T14:23:32;7.07;;;4.97;;
13975;SDS011;7062;49.792;9.946;2023-06-22T14:25:58;8.33;;;5.43;;
13975;SDS011;7062;49.792;9.946;2023-06-22T14:28:24;8.37;;;5.43;;
13975;SDS011;7062;49.792;9.946;2023-06-22T14:30:49;10.73;;;6.03;;
13975;SDS011;7062;49.792;9.946;2023-06-22T14:33:15;11.43;;;6.00;;
13975;SDS011;7062;49.792;9.946;2023-06-22T14:35:40;7.73;;;5.53;;
13975;SDS011;7062;49.792;9.946;2023-06-22T14:38:06;9.10;;;5.30;;
13975;SDS011;7062;49.792;9.946;2023-06-22T14:40:32;10.73;;;5.43;;
13975;SDS011;7062;49.792;9.946;2023-06-22T14:42:57;6.47;;;5.43;;
13975;SDS011;7062;49.792;9.946;2023-06-22T14:45:24;7.03;;;4.80;;
13975;SDS011;7062;49.792;9.946;2023-06-22T14:47:50;6.47;;;5.13;;
13975;SDS011;7062;49.792;9.946;2023-06-22T14:50:16;10.03;;;5.23;;
13975;SDS011;7062;49.792;9.946;2023-06-22T14:52:43;8.73;;;5.60;;